Terminal Aerodrome Forecast
Issued by NWS

Home | Current Version | Previous Version | Text Only | Print | Product List | Glossary On
Versions: 1 2 3 4 5 6 7 8 9 10 11 12 13 14 15
489
FTUS42 KMLB 292336
TAFISM
TAF
KISM 292336Z 3000/3024 32006KT P6SM VCTS SCT040CB BKN080
     FM300200 16004KT P6SM FEW025 BKN250
     FM301400 24004KT P6SM SCT025 SCT050
     FM302100 27007KT P6SM VCTS SCT050CB BKN250
      AMD NOT SKED 3002/3011=

USA.gov is the U.S. government's official web portal to all federal, state and local government web resources and services.